Time;durP1;ratioP1;P1;durP2;ratioP2;P2;SDS_P1;SDS_P2;PMS_P1;PMS_P2;Temp;Humidity;BMP_temperature;BMP_pressure;BME280_temperature;BME280_humidity;BME280_pressure;Samples;Min_cycle;Max_cycle;Signal;HPM_P1;HPM_P2
2022/03/11 00:00:33;;;;;;;0.85;0.32;;;22.00;54.30;;;;;;5033113;28;20027;-65
2022/03/11 00:02:58;;;;;;;0.77;0.43;;;22.10;54.40;;;;;;5033258;28;20413;-65
2022/03/11 00:05:25;;;;;;;0.40;0.40;;;22.10;54.40;;;;;;5033078;28;20021;-65
2022/03/11 00:07:51;;;;;;;2.70;0.40;;;22.00;54.30;;;;;;5033352;28;20048;-65
2022/03/11 00:10:16;;;;;;;0.60;0.45;;;22.10;54.40;;;;;;5033119;28;20465;-65
2022/03/11 00:12:42;;;;;;;1.40;0.50;;;22.00;54.30;;;;;;5032989;28;20025;-65
2022/03/11 00:15:08;;;;;;;0.63;0.40;;;22.00;54.30;;;;;;5032970;28;20024;-65
2022/03/11 00:17:34;;;;;;;0.50;0.40;;;22.00;54.30;;;;;;5033014;28;20084;-65
2022/03/11 00:20:00;;;;;;;0.55;0.40;;;22.00;54.40;;;;;;5032897;28;20026;-65
2022/03/11 00:22:26;;;;;;;0.50;0.47;;;22.10;54.50;;;;;;5028302;28;20100;-65
2022/03/11 00:24:51;;;;;;;1.23;0.50;;;22.10;54.50;;;;;;5013407;28;20030;-65
2022/03/11 00:27:17;;;;;;;0.77;0.50;;;22.10;54.50;;;;;;5012918;28;20492;-65
2022/03/11 00:29:43;;;;;;;0.85;0.40;;;22.00;54.50;;;;;;5029036;28;20056;-65
2022/03/11 00:32:08;;;;;;;0.60;0.40;;;22.00;54.50;;;;;;5032660;28;20076;-65
2022/03/11 00:34:34;;;;;;;2.28;0.80;;;22.10;54.50;;;;;;5032802;28;20480;-65
2022/03/11 00:37:00;;;;;;;0.40;0.40;;;22.10;54.60;;;;;;5032823;28;20025;-65
2022/03/11 00:39:26;;;;;;;0.57;0.35;;;22.10;54.60;;;;;;5032494;28;20032;-65
2022/03/11 00:41:52;;;;;;;0.82;0.55;;;22.10;54.60;;;;;;5031739;28;20033;-65
2022/03/11 00:44:17;;;;;;;0.47;0.45;;;22.10;54.60;;;;;;5031356;28;20025;-65
2022/03/11 00:46:43;;;;;;;0.90;0.30;;;22.10;54.60;;;;;;5027066;28;20048;-65
2022/03/11 00:49:09;;;;;;;0.70;0.40;;;22.10;54.70;;;;;;5012810;28;20050;-65
2022/03/11 00:51:34;;;;;;;1.48;0.60;;;22.10;54.60;;;;;;5012532;28;20033;-65
2022/03/11 00:54:00;;;;;;;0.63;0.40;;;22.00;54.70;;;;;;5021739;28;20369;-65
2022/03/11 00:56:28;;;;;;;0.40;0.32;;;22.00;54.70;;;;;;5032474;28;20100;-65
2022/03/11 00:58:54;;;;;;;2.28;0.60;;;22.00;54.70;;;;;;5032131;28;20028;-65
2022/03/11 01:01:20;;;;;;;1.20;0.38;;;22.00;54.70;;;;;;5032363;28;20026;-65
2022/03/11 01:03:45;;;;;;;0.30;0.30;;;22.00;54.70;;;;;;5032563;28;20021;-65
2022/03/11 01:06:11;;;;;;;0.43;0.30;;;22.00;54.70;;;;;;5032230;28;20403;-65
2022/03/11 01:08:37;;;;;;;0.38;0.30;;;22.00;54.70;;;;;;5032585;28;20492;-65
2022/03/11 01:11:02;;;;;;;0.60;0.50;;;22.00;54.70;;;;;;5032167;28;20037;-65
2022/03/11 01:13:28;;;;;;;3.30;0.40;;;22.00;54.70;;;;;;5031857;28;20021;-65
2022/03/11 01:15:54;;;;;;;0.75;0.40;;;22.00;54.70;;;;;;5032478;28;20033;-65
2022/03/11 01:18:19;;;;;;;0.47;0.40;;;22.00;54.70;;;;;;5032256;28;20026;-65
2022/03/11 01:20:45;;;;;;;0.30;0.30;;;22.00;54.80;;;;;;5032202;28;20026;-65
2022/03/11 01:23:11;;;;;;;0.68;0.30;;;22.00;54.80;;;;;;5042742;28;20044;-65
2022/03/11 01:25:36;;;;;;;0.45;0.38;;;22.00;54.80;;;;;;5052072;28;20025;-65
2022/03/11 01:28:02;;;;;;;1.05;0.47;;;22.00;54.80;;;;;;5051904;28;20104;-65
2022/03/11 01:30:27;;;;;;;0.50;0.40;;;22.00;54.80;;;;;;5034416;28;20068;-65
2022/03/11 01:32:53;;;;;;;0.38;0.20;;;22.00;54.80;;;;;;5032003;28;20025;-65
2022/03/11 01:35:19;;;;;;;0.50;0.30;;;22.00;54.90;;;;;;5032030;28;20480;-65
2022/03/11 01:37:45;;;;;;;0.60;0.40;;;22.00;54.90;;;;;;5032126;28;20022;-65
2022/03/11 01:40:11;;;;;;;0.65;0.30;;;22.00;54.90;;;;;;5031833;28;20148;-65
2022/03/11 01:42:36;;;;;;;0.47;0.30;;;22.00;54.90;;;;;;5031891;28;20048;-65
2022/03/11 01:45:05;;;;;;;0.70;0.40;;;22.00;54.90;;;;;;5031905;28;20403;-65
2022/03/11 01:47:31;;;;;;;1.58;0.30;;;22.00;54.90;;;;;;5043858;28;20061;-65
2022/03/11 01:49:57;;;;;;;0.52;0.40;;;22.00;54.90;;;;;;5052038;28;20049;-65
2022/03/11 01:52:22;;;;;;;0.30;0.30;;;22.00;55.00;;;;;;5051645;28;20106;-65
2022/03/11 01:54:49;;;;;;;1.08;0.70;;;22.00;55.00;;;;;;5051898;28;20056;-65
2022/03/11 01:57:14;;;;;;;0.73;0.30;;;22.00;55.00;;;;;;5037800;28;20522;-65
2022/03/11 01:59:40;;;;;;;0.45;0.43;;;22.00;55.00;;;;;;5055449;28;20033;-65
2022/03/11 02:02:06;;;;;;;0.93;0.40;;;22.00;55.00;;;;;;5055533;28;20096;-65
2022/03/11 02:04:32;;;;;;;0.25;0.20;;;22.00;55.00;;;;;;5055247;28;20079;-65
2022/03/11 02:06:58;;;;;;;0.52;0.40;;;22.00;55.00;;;;;;5055447;28;20064;-65
2022/03/11 02:09:23;;;;;;;0.45;0.40;;;22.00;55.10;;;;;;5055010;28;20399;-65
2022/03/11 02:11:49;;;;;;;0.32;0.30;;;22.00;55.10;;;;;;5055365;28;20029;-65
2022/03/11 02:14:15;;;;;;;0.30;0.30;;;22.00;55.10;;;;;;5055249;28;20025;-65
2022/03/11 02:16:40;;;;;;;0.38;0.38;;;22.00;55.10;;;;;;5055180;28;20031;-64
2022/03/11 02:19:06;;;;;;;0.40;0.25;;;22.00;55.10;;;;;;5055295;28;20023;-64
2022/03/11 02:21:36;;;;;;;0.50;0.30;;;22.00;55.10;;;;;;5053773;28;20029;-64
2022/03/11 02:24:01;;;;;;;0.35;0.20;;;22.00;55.10;;;;;;5036926;28;20049;-65
2022/03/11 02:26:28;;;;;;;0.20;0.20;;;22.00;55.20;;;;;;5055029;28;20028;-65
2022/03/11 02:28:55;;;;;;;1.50;0.30;;;21.90;55.10;;;;;;5055002;28;20025;-65
2022/03/11 02:31:23;;;;;;;0.35;0.20;;;21.90;55.10;;;;;;5053334;28;20483;-65
2022/03/11 02:33:49;;;;;;;0.40;0.30;;;22.00;55.20;;;;;;5055202;28;20033;-65
2022/03/11 02:36:15;;;;;;;0.60;0.30;;;22.00;55.20;;;;;;5054812;28;20070;-65
2022/03/11 02:38:40;;;;;;;0.43;0.30;;;22.00;55.20;;;;;;5053478;28;20085;-65
2022/03/11 02:41:06;;;;;;;0.80;0.20;;;21.90;55.20;;;;;;5054843;28;20061;-65
2022/03/11 02:43:32;;;;;;;0.73;0.20;;;21.90;55.20;;;;;;5054757;28;20036;-65
2022/03/11 02:45:58;;;;;;;0.30;0.30;;;22.00;55.30;;;;;;5054900;28;20021;-65
2022/03/11 02:48:23;;;;;;;0.40;0.38;;;21.90;55.30;;;;;;5035109;28;20029;-65
2022/03/11 02:50:49;;;;;;;0.95;0.30;;;22.00;55.30;;;;;;5033369;28;20101;-65
2022/03/11 02:53:15;;;;;;;0.32;0.15;;;22.00;55.30;;;;;;5049987;28;20075;-65
2022/03/11 02:55:40;;;;;;;0.50;0.30;;;22.00;55.40;;;;;;5034596;28;20097;-65
2022/03/11 02:58:06;;;;;;;1.45;0.20;;;22.00;55.40;;;;;;5034578;28;20026;-65
2022/03/11 03:00:32;;;;;;;0.25;0.25;;;22.00;55.40;;;;;;5034299;28;20459;-65
2022/03/11 03:02:57;;;;;;;1.33;0.30;;;22.00;55.40;;;;;;5034534;28;20459;-65
2022/03/11 03:05:23;;;;;;;0.43;0.30;;;22.00;55.40;;;;;;5034309;28;20026;-65
2022/03/11 03:07:49;;;;;;;1.08;0.40;;;21.90;55.30;;;;;;5032251;28;20400;-65
2022/03/11 03:10:14;;;;;;;0.57;0.38;;;22.00;55.40;;;;;;5034382;28;20032;-65
2022/03/11 03:12:40;;;;;;;0.40;0.20;;;22.00;55.40;;;;;;5034042;28;20036;-65
2022/03/11 03:15:07;;;;;;;0.20;0.20;;;22.00;55.40;;;;;;5034372;28;20100;-65
2022/03/11 03:17:32;;;;;;;0.75;0.30;;;22.00;55.40;;;;;;5034187;28;20022;-65
2022/03/11 03:19:58;;;;;;;1.58;0.50;;;22.00;55.40;;;;;;5033191;28;20070;-65
2022/03/11 03:22:24;;;;;;;0.45;0.30;;;22.00;55.40;;;;;;5037628;28;20472;-65
2022/03/11 03:24:49;;;;;;;0.20;0.20;;;22.00;56.50;;;;;;5054361;28;20032;-65
2022/03/11 03:27:15;;;;;;;0.55;0.30;;;22.00;55.50;;;;;;5036298;28;20509;-65
2022/03/11 03:29:41;;;;;;;0.52;0.35;;;21.90;55.50;;;;;;5053788;28;20049;-65
2022/03/11 03:32:07;;;;;;;0.28;0.22;;;22.00;55.50;;;;;;5053598;28;20507;-65
2022/03/11 03:34:35;;;;;;;1.45;0.43;;;21.90;55.40;;;;;;5053688;28;20394;-65
2022/03/11 03:37:02;;;;;;;0.25;0.20;;;22.00;55.50;;;;;;5053486;28;20398;-65
2022/03/11 03:39:28;;;;;;;0.45;0.22;;;22.00;55.50;;;;;;5053799;28;20067;-65
2022/03/11 03:41:54;;;;;;;0.20;0.20;;;22.00;55.50;;;;;;5053719;28;20033;-65
2022/03/11 03:44:20;;;;;;;0.20;0.20;;;22.00;55.50;;;;;;5052607;28;20117;-65
2022/03/11 03:46:45;;;;;;;1.15;0.30;;;22.00;55.50;;;;;;5053242;28;20025;-65
2022/03/11 03:49:11;;;;;;;0.40;0.40;;;22.00;55.50;;;;;;5036037;28;20029;-65
2022/03/11 03:51:39;;;;;;;0.45;0.30;;;22.00;55.50;;;;;;5052974;28;20479;-65
2022/03/11 03:54:11;;;;;;;0.68;0.32;;;21.90;55.50;;;;;;5053577;28;20442;-65
2022/03/11 03:56:41;;;;;;;0.30;0.20;;;21.90;55.60;;;;;;5053213;28;20380;-65
2022/03/11 03:59:08;;;;;;;0.20;0.20;;;21.90;55.60;;;;;;5053390;28;20021;-65
2022/03/11 04:01:34;;;;;;;0.40;0.30;;;21.90;55.60;;;;;;5053042;28;20025;-65
2022/03/11 04:04:00;;;;;;;0.50;0.32;;;21.90;55.60;;;;;;5053270;28;20032;-65
2022/03/11 04:06:28;;;;;;;0.28;0.20;;;21.90;55.60;;;;;;5052880;28;20060;-65
2022/03/11 04:08:56;;;;;;;0.47;0.20;;;21.90;55.60;;;;;;5053119;28;20031;-65
2022/03/11 04:11:31;;;;;;;0.55;0.30;;;21.90;55.60;;;;;;5052886;28;20026;-65
2022/03/11 04:13:57;;;;;;;1.52;0.30;;;21.90;55.60;;;;;;5053213;28;20023;-65
2022/03/11 04:16:23;;;;;;;0.20;0.17;;;21.90;55.70;;;;;;5018936;28;20017;-65
2022/03/11 04:18:48;;;;;;;0.20;0.20;;;21.90;55.70;;;;;;5052547;28;20028;-65
2022/03/11 04:21:15;;;;;;;0.38;0.28;;;21.90;55.60;;;;;;5018546;28;20032;-65
2022/03/11 04:23:41;;;;;;;0.30;0.30;;;21.90;55.70;;;;;;5042850;28;20522;-65
2022/03/11 04:26:07;;;;;;;0.40;0.30;;;21.90;55.70;;;;;;5032950;28;20025;-65
2022/03/11 04:28:32;;;;;;;0.45;0.40;;;21.90;55.70;;;;;;5032931;28;20056;-65
2022/03/11 04:30:58;;;;;;;1.30;0.30;;;21.90;55.70;;;;;;5047771;28;20053;-65
2022/03/11 04:33:25;;;;;;;0.60;0.20;;;21.90;55.70;;;;;;5032848;28;20049;-65
2022/03/11 04:35:50;;;;;;;0.20;0.20;;;21.90;55.70;;;;;;5032524;28;20022;-65
2022/03/11 04:38:16;;;;;;;0.70;0.30;;;21.90;55.70;;;;;;5032444;28;20029;-65
2022/03/11 04:40:42;;;;;;;0.98;0.32;;;21.90;55.70;;;;;;5032546;28;20021;-65
2022/03/11 04:43:07;;;;;;;0.32;0.32;;;21.90;55.70;;;;;;5032610;28;20041;-65
2022/03/11 04:45:33;;;;;;;0.82;0.20;;;21.90;55.80;;;;;;5032559;28;20036;-65
2022/03/11 04:47:59;;;;;;;0.20;0.13;;;21.90;55.70;;;;;;5032639;28;20037;-65
2022/03/11 04:50:25;;;;;;;0.65;0.40;;;21.90;55.70;;;;;;5032295;28;20030;-65
2022/03/11 04:52:51;;;;;;;0.17;0.10;;;21.90;55.80;;;;;;5032291;28;20033;-65
2022/03/11 04:55:17;;;;;;;2.05;0.40;;;21.90;55.80;;;;;;5032548;28;20361;-65
2022/03/11 04:57:43;;;;;;;0.45;0.20;;;21.90;55.80;;;;;;5030634;28;20022;-65
2022/03/11 05:00:09;;;;;;;0.20;0.20;;;21.90;55.80;;;;;;5032411;28;20395;-65
2022/03/11 05:02:35;;;;;;;0.63;0.30;;;21.90;55.80;;;;;;5014542;28;20502;-65
2022/03/11 05:05:07;;;;;;;0.47;0.35;;;21.90;55.80;;;;;;5047501;28;20065;-65
2022/03/11 05:07:33;;;;;;;2.00;0.30;;;21.90;55.80;;;;;;5032116;28;20388;-65
2022/03/11 05:09:59;;;;;;;0.52;0.38;;;21.90;55.90;;;;;;5032268;28;20079;-65
2022/03/11 05:12:25;;;;;;;0.43;0.32;;;21.90;55.80;;;;;;5032128;28;20021;-65
2022/03/11 05:14:51;;;;;;;1.35;0.50;;;21.90;55.80;;;;;;5032202;28;20029;-65
2022/03/11 05:17:17;;;;;;;0.32;0.22;;;21.90;55.80;;;;;;5032305;28;20032;-65
2022/03/11 05:19:43;;;;;;;0.30;0.22;;;21.90;55.80;;;;;;5031836;28;20021;-65
2022/03/11 05:22:08;;;;;;;0.35;0.25;;;21.90;55.90;;;;;;5047337;28;20026;-65
2022/03/11 05:24:35;;;;;;;0.30;0.30;;;21.90;55.90;;;;;;5032167;28;20069;-65
2022/03/11 05:27:02;;;;;;;0.40;0.40;;;21.90;55.90;;;;;;5032064;28;20029;-65
2022/03/11 05:29:29;;;;;;;0.30;0.30;;;21.90;55.90;;;;;;5032066;28;20029;-65
2022/03/11 05:31:54;;;;;;;0.55;0.20;;;21.90;56.00;;;;;;5035767;28;20029;-65
2022/03/11 05:34:20;;;;;;;0.65;0.20;;;21.90;56.00;;;;;;5034795;28;20051;-65
2022/03/11 05:36:45;;;;;;;0.28;0.28;;;21.90;56.00;;;;;;5035959;28;20397;-65
2022/03/11 05:39:11;;;;;;;0.22;0.22;;;21.90;56.00;;;;;;5036221;28;20444;-65
2022/03/11 05:41:37;;;;;;;0.55;0.40;;;21.90;56.00;;;;;;5035935;28;20565;-65
2022/03/11 05:44:03;;;;;;;0.75;0.30;;;21.90;56.00;;;;;;5035833;28;20138;-65
2022/03/11 05:46:28;;;;;;;0.20;0.20;;;21.90;56.00;;;;;;5035999;28;20028;-65
2022/03/11 05:48:54;;;;;;;0.60;0.30;;;21.90;56.00;;;;;;5035603;28;20029;-65
2022/03/11 05:51:20;;;;;;;0.13;0.13;;;21.90;56.00;;;;;;5035932;28;20033;-65
2022/03/11 05:53:45;;;;;;;0.32;0.30;;;21.90;56.00;;;;;;5035638;28;20072;-65
2022/03/11 05:56:11;;;;;;;0.30;0.30;;;21.90;56.00;;;;;;5035689;28;20087;-65
2022/03/11 05:58:37;;;;;;;1.33;0.38;;;21.90;56.00;;;;;;5035773;28;20087;-65
2022/03/11 06:01:03;;;;;;;0.85;0.20;;;21.90;56.00;;;;;;5035366;28;20022;-65
2022/03/11 06:03:29;;;;;;;0.10;0.10;;;21.90;56.10;;;;;;5035451;28;20014;-65
2022/03/11 06:05:55;;;;;;;0.52;0.30;;;21.90;56.10;;;;;;5035371;28;20022;-65
2022/03/11 06:08:21;;;;;;;0.30;0.25;;;21.90;56.10;;;;;;5017771;28;20495;-65
2022/03/11 06:10:47;;;;;;;0.45;0.30;;;21.90;56.10;;;;;;5035355;28;20026;-65
2022/03/11 06:13:14;;;;;;;0.30;0.30;;;21.90;56.10;;;;;;5035293;28;20025;-65
2022/03/11 06:15:41;;;;;;;1.75;0.40;;;21.90;56.10;;;;;;5035474;28;20033;-65
2022/03/11 06:18:07;;;;;;;0.60;0.50;;;21.90;56.10;;;;;;5035035;28;20029;-65
2022/03/11 06:20:32;;;;;;;0.40;0.30;;;21.90;56.20;;;;;;5035364;28;20021;-65
2022/03/11 06:22:58;;;;;;;0.60;0.43;;;21.90;56.20;;;;;;5033062;28;20419;-65
2022/03/11 06:25:24;;;;;;;1.95;0.30;;;21.90;56.20;;;;;;5015393;28;20033;-65
2022/03/11 06:27:49;;;;;;;0.20;0.20;;;21.90;56.20;;;;;;5033308;28;20025;-65
2022/03/11 06:30:15;;;;;;;0.20;0.20;;;21.90;56.20;;;;;;5030802;28;20442;-65
2022/03/11 06:32:45;;;;;;;0.65;0.30;;;21.90;56.20;;;;;;5031398;28;20519;-65
2022/03/11 06:35:13;;;;;;;0.60;0.30;;;21.90;56.30;;;;;;5031864;28;20021;-65
2022/03/11 06:37:39;;;;;;;1.67;0.40;;;21.90;56.30;;;;;;5031428;28;20024;-65
2022/03/11 06:40:06;;;;;;;0.77;0.40;;;21.90;56.30;;;;;;5032953;28;20025;-65
2022/03/11 06:42:38;;;;;;;0.43;0.35;;;21.90;56.20;;;;;;5033113;28;20014;-65
2022/03/11 06:45:05;;;;;;;3.60;0.35;;;21.90;56.20;;;;;;5034469;28;20026;-65
2022/03/11 06:47:31;;;;;;;0.82;0.50;;;21.90;56.50;;;;;;5022685;28;20034;-65
2022/03/11 06:49:56;;;;;;;0.47;0.47;;;21.90;55.60;;;;;;5014841;28;20462;-65
2022/03/11 06:52:22;;;;;;;0.80;0.50;;;21.80;55.30;;;;;;4998200;28;20128;-65
2022/03/11 06:54:48;;;;;;;0.85;0.50;;;21.70;55.10;;;;;;5024809;28;20511;-65
2022/03/11 06:57:15;;;;;;;0.50;0.50;;;21.70;55.20;;;;;;5014796;28;20396;-65
2022/03/11 06:59:44;;;;;;;0.38;0.32;;;21.60;55.10;;;;;;5016150;28;20026;-65
2022/03/11 07:02:10;;;;;;;0.60;0.60;;;21.60;55.00;;;;;;5033241;28;20025;-65
2022/03/11 07:04:36;;;;;;;0.60;0.55;;;21.60;55.00;;;;;;5016860;28;20029;-65
2022/03/11 07:07:02;;;;;;;1.02;0.55;;;21.50;55.00;;;;;;5034345;28;20025;-65
2022/03/11 07:09:27;;;;;;;0.88;0.50;;;21.50;54.90;;;;;;5034476;28;20083;-65
2022/03/11 07:11:57;;;;;;;0.63;0.63;;;21.50;54.90;;;;;;5034119;28;20025;-65
2022/03/11 07:14:23;;;;;;;0.73;0.40;;;21.50;54.80;;;;;;5033945;28;20510;-65
2022/03/11 07:16:52;;;;;;;1.48;0.50;;;21.40;54.80;;;;;;5034162;28;20090;-65
2022/03/11 07:19:21;;;;;;;0.50;0.45;;;21.40;54.70;;;;;;5034205;28;20104;-65
2022/03/11 07:21:47;;;;;;;0.52;0.52;;;21.40;54.80;;;;;;5034423;28;20033;-65
2022/03/11 07:24:12;;;;;;;0.50;0.50;;;21.40;54.70;;;;;;5052862;28;20059;-65
2022/03/11 07:26:38;;;;;;;0.40;0.40;;;21.40;54.60;;;;;;5053398;28;20025;-65
2022/03/11 07:29:04;;;;;;;0.57;0.57;;;21.30;54.50;;;;;;5051883;28;20020;-65
2022/03/11 07:31:29;;;;;;;1.00;0.40;;;21.30;54.50;;;;;;5052256;28;20033;-65
2022/03/11 07:33:56;;;;;;;1.00;0.70;;;21.30;54.50;;;;;;5052012;28;20115;-65
2022/03/11 07:36:21;;;;;;;1.10;0.65;;;21.30;54.50;;;;;;5034384;28;20013;-65
2022/03/11 07:38:48;;;;;;;0.55;0.50;;;21.30;54.50;;;;;;5051954;28;20510;-65
2022/03/11 07:41:15;;;;;;;0.68;0.68;;;21.30;54.40;;;;;;5034657;28;20459;-65
2022/03/11 07:43:44;;;;;;;1.02;0.57;;;21.20;54.30;;;;;;5053157;28;20025;-65
2022/03/11 07:46:14;;;;;;;3.60;1.17;;;21.30;54.40;;;;;;5052487;28;20025;-65
2022/03/11 07:48:40;;;;;;;6.88;2.10;;;21.30;54.30;;;;;;5048328;28;20030;-65
2022/03/11 07:51:06;;;;;;;11.38;2.20;;;21.20;54.30;;;;;;5033253;28;20025;-65
2022/03/11 07:53:32;;;;;;;4.13;1.73;;;21.20;54.30;;;;;;5032865;28;20087;-65
2022/03/11 07:55:58;;;;;;;10.88;1.92;;;21.20;54.30;;;;;;5033390;28;20022;-65
2022/03/11 07:58:24;;;;;;;6.90;1.80;;;21.20;54.30;;;;;;5033052;28;20369;-65
2022/03/11 08:00:50;;;;;;;9.20;1.83;;;21.20;54.30;;;;;;5038461;28;20021;-65
2022/03/11 08:03:16;;;;;;;7.43;2.15;;;21.20;54.30;;;;;;5032018;28;20457;-65
2022/03/11 08:05:42;;;;;;;7.15;1.80;;;21.20;54.30;;;;;;5033167;28;20083;-65
2022/03/11 08:08:08;;;;;;;9.75;2.58;;;21.20;54.20;;;;;;5036725;28;20036;-65
2022/03/11 08:10:35;;;;;;;9.70;2.03;;;21.20;54.20;;;;;;5053166;28;20032;-65
2022/03/11 08:13:01;;;;;;;4.60;1.48;;;21.20;54.20;;;;;;5052745;28;20028;-65
2022/03/11 08:15:26;;;;;;;8.60;2.03;;;21.20;54.20;;;;;;5051877;28;20033;-65
2022/03/11 08:17:52;;;;;;;6.57;1.85;;;21.20;54.20;;;;;;5039331;28;20097;-65
2022/03/11 08:20:18;;;;;;;4.45;2.00;;;21.20;54.20;;;;;;5033308;28;20036;-65
2022/03/11 08:22:45;;;;;;;5.35;1.92;;;21.20;54.20;;;;;;5039583;28;20521;-65
2022/03/11 08:25:11;;;;;;;6.35;1.70;;;21.20;54.20;;;;;;5052917;28;20100;-65
2022/03/11 08:27:37;;;;;;;5.50;2.00;;;21.20;54.10;;;;;;5051480;28;20108;-65
2022/03/11 08:30:07;;;;;;;8.25;2.20;;;21.20;54.20;;;;;;5052616;28;20025;-65
2022/03/11 08:32:33;;;;;;;6.60;1.70;;;21.20;54.10;;;;;;5052962;28;20033;-65
2022/03/11 08:34:58;;;;;;;6.60;1.75;;;21.20;54.10;;;;;;5051335;28;20083;-65
2022/03/11 08:37:25;;;;;;;6.63;2.17;;;21.20;54.10;;;;;;5052532;28;20017;-65
2022/03/11 08:39:51;;;;;;;4.00;1.85;;;21.10;54.10;;;;;;5052677;28;20025;-65
2022/03/11 08:42:17;;;;;;;8.95;1.98;;;21.10;55.10;;;;;;5052429;28;20544;-65
2022/03/11 08:44:42;;;;;;;9.02;1.90;;;21.20;55.10;;;;;;5051314;28;20556;-65
2022/03/11 08:47:08;;;;;;;6.03;1.88;;;21.10;54.10;;;;;;5052337;28;20115;-65
2022/03/11 08:49:34;;;;;;;5.75;1.83;;;21.10;54.10;;;;;;5052490;28;20025;-65
2022/03/11 08:52:00;;;;;;;4.82;1.73;;;21.20;54.20;;;;;;5052270;28;20506;-65
2022/03/11 08:54:26;;;;;;;4.78;1.58;;;21.10;54.10;;;;;;5051638;28;20014;-65
2022/03/11 08:56:54;;;;;;;9.50;1.52;;;21.10;54.10;;;;;;5052136;28;20033;-65
2022/03/11 08:59:20;;;;;;;5.18;1.85;;;21.10;54.10;;;;;;5052218;28;20021;-65
2022/03/11 09:01:49;;;;;;;4.50;1.63;;;21.10;54.10;;;;;;5052302;28;20032;-65
2022/03/11 09:04:15;;;;;;;6.03;1.50;;;21.10;54.10;;;;;;5051596;28;20467;-65
2022/03/11 09:06:40;;;;;;;2.55;1.55;;;21.10;54.10;;;;;;5052016;28;20035;-65
2022/03/11 09:09:08;;;;;;;3.13;1.50;;;21.20;54.20;;;;;;5052252;28;20021;-65
2022/03/11 09:11:33;;;;;;;4.20;1.42;;;21.10;54.10;;;;;;5051846;28;20411;-65
2022/03/11 09:13:59;;;;;;;3.67;1.23;;;21.10;54.10;;;;;;5052066;28;20013;-65
2022/03/11 09:16:25;;;;;;;5.35;1.55;;;21.10;54.10;;;;;;5052268;28;20029;-65
2022/03/11 09:18:51;;;;;;;3.97;1.38;;;21.10;54.10;;;;;;5051001;28;20490;-65
2022/03/11 09:21:16;;;;;;;4.22;1.33;;;21.10;54.10;;;;;;5052102;28;20083;-65
2022/03/11 09:23:43;;;;;;;6.25;1.45;;;21.10;54.10;;;;;;5051952;28;20112;-65
2022/03/11 09:26:08;;;;;;;2.55;1.15;;;21.10;54.10;;;;;;5050690;28;20025;-65
2022/03/11 09:28:34;;;;;;;5.13;1.65;;;21.10;54.10;;;;;;5052252;28;20021;-65
2022/03/11 09:31:01;;;;;;;5.05;1.30;;;21.10;54.10;;;;;;5050671;28;20021;-65
2022/03/11 09:33:27;;;;;;;4.15;1.50;;;21.10;54.10;;;;;;5050972;28;20025;-65
2022/03/11 09:35:53;;;;;;;5.55;1.50;;;21.10;54.10;;;;;;5052065;28;20449;-65
2022/03/11 09:38:18;;;;;;;8.20;1.58;;;21.10;54.10;;;;;;5051752;28;20029;-65
2022/03/11 09:40:44;;;;;;;3.20;1.17;;;21.10;54.10;;;;;;5051759;28;20021;-65
2022/03/11 09:43:11;;;;;;;2.70;1.20;;;21.10;54.10;;;;;;5050839;28;20339;-65
2022/03/11 09:45:37;;;;;;;3.28;1.20;;;21.10;54.10;;;;;;5051941;28;20482;-65
2022/03/11 09:48:03;;;;;;;4.07;1.42;;;21.10;54.10;;;;;;5051966;28;20021;-65
2022/03/11 09:50:29;;;;;;;4.70;1.50;;;21.10;54.10;;;;;;5050697;28;20021;-65
2022/03/11 09:52:55;;;;;;;7.22;1.58;;;21.20;54.20;;;;;;5051757;28;20021;-65
2022/03/11 09:55:21;;;;;;;3.85;1.27;;;21.10;54.10;;;;;;5050264;28;20462;-65
2022/03/11 09:57:47;;;;;;;2.95;1.20;;;21.10;54.10;;;;;;5051844;28;20022;-65
2022/03/11 10:00:13;;;;;;;2.42;1.08;;;21.10;54.10;;;;;;5050402;28;20029;-65
2022/03/11 10:02:47;;;;;;;2.20;1.23;;;21.10;54.10;;;;;;5051699;28;20017;-65
2022/03/11 10:05:13;;;;;;;4.93;1.48;;;21.10;54.00;;;;;;5051772;28;20029;-65
2022/03/11 10:07:39;;;;;;;2.55;1.10;;;21.10;54.20;;;;;;5017434;28;20025;-65
2022/03/11 10:10:19;;;;;;;2.28;1.02;;;21.10;54.10;;;;;;5051360;28;20040;-65
2022/03/11 10:12:45;;;;;;;1.80;1.00;;;21.10;55.00;;;;;;5051791;28;20502;-65
2022/03/11 10:15:12;;;;;;;2.70;1.00;;;21.10;54.10;;;;;;5051684;28;20024;-65
2022/03/11 10:17:42;;;;;;;4.28;1.50;;;21.10;54.20;;;;;;5054963;28;20100;-65
2022/03/11 10:20:12;;;;;;;3.60;1.23;;;21.10;54.10;;;;;;5055189;28;20486;-65
2022/03/11 10:22:40;;;;;;;2.63;1.00;;;21.10;54.10;;;;;;5047729;28;20435;-65
2022/03/11 10:25:19;;;;;;;1.73;0.98;;;21.10;54.20;;;;;;5035226;28;20443;-65
2022/03/11 10:28:04;;;;;;;3.67;1.00;;;21.10;54.00;;;;;;5035385;28;20031;-65
2022/03/11 10:30:32;;;;;;;2.75;1.10;;;21.10;53.90;;;;;;5035264;28;20041;-65
2022/03/11 10:33:00;;;;;;;3.70;1.00;;;21.10;54.10;;;;;;5034699;28;20439;-65
2022/03/11 10:35:47;;;;;;;1.63;0.80;;;21.10;54.20;;;;;;5033926;28;20053;-65
2022/03/11 10:38:14;;;;;;;2.65;1.17;;;21.10;54.00;;;;;;5033540;28;20033;-65
2022/03/11 10:40:41;;;;;;;2.75;0.90;;;21.10;54.10;;;;;;5017355;28;20476;-65
2022/03/11 10:43:17;;;;;;;2.55;0.85;;;21.10;54.10;;;;;;5000358;28;20570;-65
2022/03/11 10:46:10;;;;;;;3.58;1.08;;;21.10;54.10;;;;;;5034665;28;20025;-65
2022/03/11 10:48:48;;;;;;;2.15;0.80;;;21.10;54.00;;;;;;5034791;28;20486;-65
2022/03/11 10:51:32;;;;;;;2.70;1.05;;;21.10;54.10;;;;;;5033459;28;20022;-65
2022/03/11 10:54:05;;;;;;;2.30;0.80;;;21.10;54.00;;;;;;5034727;28;20024;-65
2022/03/11 10:56:35;;;;;;;2.40;0.88;;;21.00;54.10;;;;;;5034636;28;20472;-65
2022/03/11 10:59:23;;;;;;;0.93;0.63;;;21.00;54.10;;;;;;5034266;28;20446;-65
2022/03/11 11:01:50;;;;;;;1.48;0.88;;;21.10;54.00;;;;;;5034535;28;20116;-65
2022/03/11 11:04:17;;;;;;;1.35;0.68;;;21.00;54.10;;;;;;5016725;28;20475;-65
2022/03/11 11:06:43;;;;;;;1.98;0.90;;;21.00;54.10;;;;;;5034328;28;20057;-65
2022/03/11 11:09:09;;;;;;;3.33;1.20;;;21.00;54.10;;;;;;5034367;28;20107;-65
2022/03/11 11:11:35;;;;;;;1.42;0.80;;;21.00;54.10;;;;;;5034202;28;20049;-65
2022/03/11 11:14:08;;;;;;;2.28;0.70;;;21.10;54.10;;;;;;5034357;28;20111;-65
2022/03/11 11:16:39;;;;;;;2.53;0.82;;;21.00;54.00;;;;;;5034223;28;20021;-65
2022/03/11 11:19:10;;;;;;;2.05;0.80;;;21.10;54.10;;;;;;5034254;28;20036;-65
2022/03/11 11:21:36;;;;;;;2.13;0.85;;;21.10;54.10;;;;;;5033586;28;20056;-65
2022/03/11 11:24:01;;;;;;;1.02;0.77;;;21.00;54.10;;;;;;5034026;28;20511;-65
2022/03/11 11:26:27;;;;;;;1.40;0.77;;;21.00;54.00;;;;;;5016313;28;20037;-65
2022/03/11 11:28:54;;;;;;;2.35;0.73;;;21.00;54.00;;;;;;5033209;28;20030;-65
2022/03/11 11:31:21;;;;;;;2.90;0.70;;;21.00;54.00;;;;;;5032623;28;20029;-65
2022/03/11 11:33:47;;;;;;;2.15;0.73;;;21.00;54.00;;;;;;5016277;28;20392;-65
2022/03/11 11:36:13;;;;;;;3.30;0.98;;;21.00;55.00;;;;;;5033698;28;20025;-65
2022/03/11 11:38:42;;;;;;;1.95;0.70;;;21.00;54.00;;;;;;5032655;28;20022;-65
2022/03/11 11:41:26;;;;;;;1.67;0.70;;;21.10;54.00;;;;;;5033920;28;20033;-65
2022/03/11 11:44:05;;;;;;;2.50;1.30;;;21.10;53.80;;;;;;5033736;28;20037;-65
2022/03/11 11:46:36;;;;;;;1.25;0.77;;;21.10;54.00;;;;;;5016160;28;20026;-65
2022/03/11 11:49:06;;;;;;;1.33;0.60;;;21.00;54.00;;;;;;5033551;28;20399;-65
2022/03/11 11:51:34;;;;;;;1.83;0.68;;;21.00;54.00;;;;;;5032210;28;20036;-65
2022/03/11 11:54:11;;;;;;;1.73;0.80;;;21.00;54.00;;;;;;5033738;28;20028;-65
2022/03/11 11:56:43;;;;;;;1.63;0.90;;;21.00;54.00;;;;;;5033676;28;20484;-65
2022/03/11 11:59:35;;;;;;;1.30;0.70;;;21.00;54.00;;;;;;5033330;28;20080;-65
2022/03/11 12:02:02;;;;;;;1.67;0.80;;;21.10;53.80;;;;;;5001661;28;20029;-65
2022/03/11 12:04:39;;;;;;;1.55;0.60;;;21.00;54.00;;;;;;5015655;28;20025;-65
2022/03/11 12:07:05;;;;;;;2.17;0.90;;;21.00;54.10;;;;;;5033298;28;20021;-65
2022/03/11 12:09:45;;;;;;;1.48;0.90;;;21.00;54.00;;;;;;5033150;28;20053;-65
2022/03/11 12:12:26;;;;;;;2.25;0.70;;;21.00;53.90;;;;;;5032961;28;20022;-65
2022/03/11 12:15:04;;;;;;;1.33;0.75;;;21.00;53.90;;;;;;5033192;28;20037;-65
2022/03/11 12:17:45;;;;;;;1.73;0.70;;;21.00;54.00;;;;;;5033110;28;20018;-65
2022/03/11 12:20:31;;;;;;;1.00;0.60;;;21.00;53.90;;;;;;5032919;28;20029;-65
2022/03/11 12:23:09;;;;;;;0.73;0.50;;;21.00;53.80;;;;;;5032679;28;20041;-65
2022/03/11 12:25:50;;;;;;;3.10;0.70;;;21.00;54.00;;;;;;5033060;28;20033;-65
2022/03/11 12:28:25;;;;;;;1.38;0.60;;;21.00;54.00;;;;;;5032767;28;20026;-65
2022/03/11 12:30:50;;;;;;;2.08;0.60;;;21.00;53.90;;;;;;5032930;28;20454;-65
2022/03/11 12:33:20;;;;;;;0.98;0.52;;;21.00;54.00;;;;;;5032424;28;20117;-65
2022/03/11 12:35:47;;;;;;;1.60;0.68;;;21.00;54.00;;;;;;5032745;28;20044;-65
2022/03/11 12:38:18;;;;;;;0.60;0.55;;;21.00;53.90;;;;;;5031515;28;20124;-65
2022/03/11 12:40:44;;;;;;;1.42;0.60;;;21.00;53.90;;;;;;5032612;28;20021;-65
2022/03/11 12:43:11;;;;;;;1.92;0.52;;;21.00;54.00;;;;;;5032576;28;20025;-65
2022/03/11 12:45:49;;;;;;;0.63;0.35;;;21.00;53.90;;;;;;5031360;28;20025;-65
2022/03/11 12:48:17;;;;;;;1.50;0.55;;;21.00;53.90;;;;;;5032232;28;20017;-65